Time;durP1;ratioP1;P1;durP2;ratioP2;P2;SDS_P1;SDS_P2;PMS_P1;PMS_P2;Temp;Humidity;BMP_temperature;BMP_pressure;BME280_temperature;BME280_humidity;BME280_pressure;Samples;Min_cycle;Max_cycle;Signal;HPM_P1;HPM_P2
2022/03/30 00:00:57;;;;;;;51.80;24.70;;;9.20;99.90;;;;;;5070337;28;20968;-73
2022/03/30 00:03:23;;;;;;;52.37;24.47;;;9.20;99.90;;;;;;5079477;28;20517;-73
2022/03/30 00:05:50;;;;;;;54.30;24.33;;;9.10;99.90;;;;;;5079160;28;20447;-73
2022/03/30 00:08:17;;;;;;;54.50;25.17;;;9.10;99.90;;;;;;5075644;28;20518;-73
2022/03/30 00:10:43;;;;;;;54.47;24.60;;;9.10;99.90;;;;;;5074836;28;21012;-73
2022/03/30 00:13:11;;;;;;;48.10;25.07;;;9.00;99.90;;;;;;5076396;28;20459;-73
2022/03/30 00:15:38;;;;;;;51.97;24.97;;;9.00;99.90;;;;;;5081726;28;20961;-73
2022/03/30 00:18:05;;;;;;;45.50;24.10;;;8.90;99.90;;;;;;5078426;28;20474;-73
2022/03/30 00:20:31;;;;;;;51.80;25.70;;;8.90;99.90;;;;;;5086388;28;20520;-73
2022/03/30 00:22:58;;;;;;;58.50;26.87;;;8.90;99.90;;;;;;5080227;28;20827;-73
2022/03/30 00:25:25;;;;;;;51.03;27.40;;;8.80;99.90;;;;;;5085260;28;20451;-73
2022/03/30 00:27:51;;;;;;;50.50;26.50;;;8.90;99.90;;;;;;5084602;28;20489;-73
2022/03/30 00:30:21;;;;;;;55.53;26.20;;;8.80;99.90;;;;;;5076735;28;20868;-73
2022/03/30 00:32:47;;;;;;;53.30;28.07;;;8.70;99.90;;;;;;5078411;28;20958;-73
2022/03/30 00:35:15;;;;;;;51.53;26.67;;;8.70;99.90;;;;;;5075265;28;20447;-73
2022/03/30 00:37:42;;;;;;;56.20;27.30;;;8.60;99.90;;;;;;5074889;28;20514;-73
2022/03/30 00:40:12;;;;;;;50.10;26.23;;;8.60;99.90;;;;;;5081677;28;20458;-73
2022/03/30 00:42:39;;;;;;;53.97;26.20;;;8.60;99.90;;;;;;5084117;28;20543;-73
2022/03/30 00:45:10;;;;;;;61.30;26.50;;;8.60;99.90;;;;;;5069676;28;20460;-73
2022/03/30 00:47:39;;;;;;;52.00;25.77;;;8.50;99.90;;;;;;5069379;28;20468;-73
2022/03/30 00:50:07;;;;;;;54.13;26.93;;;8.60;99.90;;;;;;5069616;28;20444;-73
2022/03/30 00:52:35;;;;;;;60.63;27.20;;;8.50;99.90;;;;;;5081542;28;20458;-73
2022/03/30 00:55:02;;;;;;;57.03;28.43;;;8.40;99.90;;;;;;5080383;28;20501;-73
2022/03/30 00:57:30;;;;;;;53.47;26.77;;;8.30;99.90;;;;;;5085722;28;20482;-73
2022/03/30 00:59:57;;;;;;;67.87;27.50;;;8.30;99.90;;;;;;5083644;28;20458;-73
2022/03/30 01:02:24;;;;;;;57.13;27.03;;;8.30;99.90;;;;;;5075160;28;20970;-73
2022/03/30 01:04:52;;;;;;;48.07;26.30;;;8.20;99.90;;;;;;5076100;28;20455;-73
2022/03/30 01:07:19;;;;;;;59.80;27.40;;;8.20;99.90;;;;;;5077609;28;20474;-73
2022/03/30 01:09:47;;;;;;;54.70;28.07;;;8.20;99.90;;;;;;5082109;28;20464;-73
2022/03/30 01:12:13;;;;;;;59.03;28.13;;;8.10;99.90;;;;;;5078743;28;20521;-73
2022/03/30 01:14:40;;;;;;;65.47;29.10;;;8.10;99.90;;;;;;5080036;28;20859;-73
2022/03/30 01:17:07;;;;;;;63.10;28.27;;;8.10;99.90;;;;;;5075367;28;20479;-73
2022/03/30 01:19:35;;;;;;;57.10;27.60;;;8.00;99.90;;;;;;5080527;28;20501;-73
2022/03/30 01:22:03;;;;;;;62.40;28.13;;;8.00;99.90;;;;;;5081947;28;20905;-73
2022/03/30 01:24:30;;;;;;;54.17;27.30;;;8.00;99.90;;;;;;5082138;28;20959;-73
2022/03/30 01:26:56;;;;;;;60.93;28.60;;;7.90;99.90;;;;;;5080417;28;20505;-73
2022/03/30 01:32:28;;;;;;;53.73;26.43;;;7.80;99.90;;;;;;5075624;28;20493;-73
2022/03/30 01:34:56;;;;;;;53.17;28.07;;;7.90;99.90;;;;;;5077563;28;20451;-73
2022/03/30 01:37:24;;;;;;;60.03;28.00;;;7.90;99.90;;;;;;5078297;28;20922;-73
2022/03/30 01:39:51;;;;;;;55.83;27.47;;;7.90;99.90;;;;;;5086422;28;20451;-73
2022/03/30 01:42:18;;;;;;;58.33;28.57;;;7.90;99.90;;;;;;5077492;28;20455;-73
2022/03/30 01:44:45;;;;;;;60.97;28.43;;;7.90;99.90;;;;;;5078431;28;20455;-73
2022/03/30 01:47:12;;;;;;;58.40;28.97;;;7.90;99.90;;;;;;5074646;28;20579;-73
2022/03/30 01:49:39;;;;;;;56.20;27.57;;;7.90;99.90;;;;;;5075379;28;20458;-73
2022/03/30 01:52:07;;;;;;;61.73;28.50;;;7.80;99.90;;;;;;5083734;28;20458;-73
2022/03/30 01:54:39;;;;;;;62.87;27.53;;;7.80;99.90;;;;;;5074565;28;20513;-73
2022/03/30 01:57:07;;;;;;;57.70;27.70;;;7.80;99.90;;;;;;5080466;28;20483;-73
2022/03/30 01:59:34;;;;;;;54.37;28.97;;;7.80;99.90;;;;;;5077896;28;20456;-73
2022/03/30 02:02:02;;;;;;;55.00;27.97;;;7.80;99.90;;;;;;5073104;28;20505;-73
2022/03/30 02:04:29;;;;;;;53.93;27.40;;;7.80;99.90;;;;;;5081010;28;20542;-73
2022/03/30 02:06:56;;;;;;;55.50;28.53;;;7.80;99.90;;;;;;5071968;28;20993;-73
2022/03/30 02:09:22;;;;;;;52.63;28.20;;;7.80;99.90;;;;;;5083011;28;20455;-73
2022/03/30 02:11:51;;;;;;;59.00;29.20;;;7.70;99.90;;;;;;5074996;28;20455;-73
2022/03/30 02:14:18;;;;;;;62.17;27.80;;;7.70;99.90;;;;;;5068275;28;21023;-73
2022/03/30 02:16:45;;;;;;;60.93;28.33;;;7.70;99.90;;;;;;5069238;28;20593;-73
2022/03/30 02:19:12;;;;;;;57.13;27.60;;;7.70;99.90;;;;;;5068763;28;20536;-73
2022/03/30 02:21:39;;;;;;;63.00;27.90;;;7.70;99.90;;;;;;5073449;28;20878;-73
2022/03/30 02:24:07;;;;;;;66.60;28.00;;;7.70;99.90;;;;;;5079629;28;20482;-73
2022/03/30 02:26:33;;;;;;;63.47;28.93;;;7.60;99.90;;;;;;5076724;28;20442;-73
2022/03/30 02:29:01;;;;;;;65.20;28.43;;;7.60;99.90;;;;;;5079742;28;20475;-73
2022/03/30 02:31:28;;;;;;;62.67;29.77;;;7.50;99.90;;;;;;5084868;28;20513;-73
2022/03/30 02:33:55;;;;;;;60.43;29.57;;;7.50;99.90;;;;;;5079435;28;20450;-73
2022/03/30 02:36:21;;;;;;;64.13;29.87;;;7.50;99.90;;;;;;5085947;28;20516;-73
2022/03/30 02:38:48;;;;;;;61.97;29.90;;;7.50;99.90;;;;;;5083546;28;21134;-73
2022/03/30 02:41:15;;;;;;;58.70;27.37;;;7.50;99.90;;;;;;5089977;28;20451;-73
2022/03/30 02:43:41;;;;;;;60.57;29.10;;;7.50;99.90;;;;;;5075442;28;20447;-73
2022/03/30 02:46:10;;;;;;;58.30;28.30;;;7.50;99.90;;;;;;5075762;28;20446;-73
2022/03/30 02:48:37;;;;;;;64.37;29.80;;;7.40;99.90;;;;;;5072151;28;20540;-73
2022/03/30 02:51:06;;;;;;;66.07;30.77;;;7.40;99.90;;;;;;5071573;28;20577;-73
2022/03/30 02:53:34;;;;;;;63.63;30.77;;;7.40;99.90;;;;;;5082218;28;20447;-73
2022/03/30 02:56:02;;;;;;;62.30;30.70;;;7.40;99.90;;;;;;5075608;28;20448;-72
2022/03/30 02:58:29;;;;;;;68.40;30.27;;;7.40;99.90;;;;;;5087483;28;20535;-73
2022/03/30 03:00:56;;;;;;;64.90;30.70;;;7.30;99.90;;;;;;5082099;28;20946;-73
2022/03/30 03:03:25;;;;;;;65.27;31.00;;;7.30;99.90;;;;;;5080516;28;20474;-73
2022/03/30 03:05:52;;;;;;;60.03;29.60;;;7.30;99.90;;;;;;5080222;28;20829;-73
2022/03/30 03:08:19;;;;;;;66.93;32.60;;;7.20;99.90;;;;;;5082296;28;20458;-73
2022/03/30 03:10:48;;;;;;;65.13;31.47;;;7.20;99.90;;;;;;5080355;28;20504;-73
2022/03/30 03:13:16;;;;;;;65.53;31.40;;;7.20;99.90;;;;;;5082102;28;20516;-73
2022/03/30 03:15:44;;;;;;;71.20;33.20;;;7.20;99.90;;;;;;5076152;28;20799;-72
2022/03/30 03:18:11;;;;;;;65.37;30.67;;;7.20;99.90;;;;;;5080083;28;20502;-73
2022/03/30 03:20:43;;;;;;;69.77;31.93;;;7.10;99.90;;;;;;5081112;28;20811;-73
2022/03/30 03:23:10;;;;;;;69.03;33.20;;;7.10;99.90;;;;;;5077065;28;20566;-72
2022/03/30 03:25:37;;;;;;;68.70;32.33;;;7.10;99.90;;;;;;5079012;28;21102;-72
2022/03/30 03:28:05;;;;;;;67.57;31.43;;;7.10;99.90;;;;;;5079846;28;20493;-73
2022/03/30 03:30:32;;;;;;;72.67;31.20;;;7.10;99.90;;;;;;5080853;28;20905;-73
2022/03/30 03:32:59;;;;;;;64.60;31.23;;;7.10;99.90;;;;;;5078768;28;20516;-73
2022/03/30 03:35:26;;;;;;;64.20;31.10;;;7.00;99.90;;;;;;5082989;28;21023;-72
2022/03/30 03:37:55;;;;;;;72.20;32.43;;;7.00;99.90;;;;;;5083215;28;20483;-72
2022/03/30 03:40:21;;;;;;;85.07;34.70;;;7.00;99.90;;;;;;5079199;28;20442;-72
2022/03/30 03:42:48;;;;;;;69.00;30.80;;;6.90;99.90;;;;;;5074267;28;20459;-72
2022/03/30 03:45:15;;;;;;;82.53;33.53;;;6.90;99.90;;;;;;5077646;28;20506;-72
2022/03/30 03:47:42;;;;;;;83.07;31.70;;;6.80;99.90;;;;;;5079337;28;20469;-73
2022/03/30 03:50:11;;;;;;;75.43;33.23;;;6.80;99.90;;;;;;5076719;28;21036;-73
2022/03/30 03:52:38;;;;;;;78.70;32.77;;;6.70;99.90;;;;;;5077999;28;20446;-73
2022/03/30 03:55:07;;;;;;;80.00;34.37;;;6.70;99.90;;;;;;5075006;28;20447;-72
2022/03/30 03:57:35;;;;;;;74.83;32.90;;;6.60;99.90;;;;;;5081308;28;20479;-71
2022/03/30 04:00:02;;;;;;;68.97;30.70;;;6.60;99.90;;;;;;5078799;28;20455;-71
2022/03/30 04:02:29;;;;;;;74.97;33.27;;;6.50;99.90;;;;;;5080472;28;20452;-71
2022/03/30 04:04:55;;;;;;;74.40;32.40;;;6.50;99.90;;;;;;5079568;28;20454;-71
2022/03/30 04:07:22;;;;;;;74.77;33.50;;;6.50;99.90;;;;;;5077928;28;21048;-71
2022/03/30 04:09:48;;;;;;;82.97;33.27;;;6.50;99.90;;;;;;5088099;28;20463;-71
2022/03/30 04:12:16;;;;;;;79.57;34.60;;;6.50;99.90;;;;;;5083615;28;20506;-71
2022/03/30 04:14:43;;;;;;;69.73;32.40;;;6.40;99.90;;;;;;5074079;28;20493;-71
2022/03/30 04:17:11;;;;;;;81.23;35.13;;;6.40;99.90;;;;;;5078271;28;20495;-71
2022/03/30 04:19:38;;;;;;;88.33;34.97;;;6.40;99.90;;;;;;5075996;28;20506;-71
2022/03/30 04:22:05;;;;;;;73.37;31.53;;;6.30;99.90;;;;;;5076150;28;20485;-70
2022/03/30 04:24:32;;;;;;;89.10;34.57;;;6.30;99.90;;;;;;5081287;28;20463;-71
2022/03/30 04:26:58;;;;;;;85.77;36.07;;;6.30;99.90;;;;;;5076069;28;20509;-71
2022/03/30 04:29:26;;;;;;;82.53;36.10;;;6.30;99.90;;;;;;5077466;28;20448;-71
2022/03/30 04:31:53;;;;;;;85.23;35.80;;;6.30;99.90;;;;;;5073371;28;20448;-71
2022/03/30 04:34:20;;;;;;;84.70;34.97;;;6.20;99.90;;;;;;5069210;28;20932;-71
2022/03/30 04:36:46;;;;;;;81.03;33.50;;;6.20;99.90;;;;;;5069975;28;20456;-71
2022/03/30 04:39:13;;;;;;;87.20;38.00;;;6.30;99.90;;;;;;5068963;28;20541;-71
2022/03/30 04:41:40;;;;;;;91.03;37.70;;;6.30;99.90;;;;;;5070146;28;20447;-71
2022/03/30 04:44:07;;;;;;;83.57;35.03;;;6.20;99.90;;;;;;5069665;28;20448;-71
2022/03/30 04:46:35;;;;;;;90.17;35.57;;;6.20;99.90;;;;;;5069636;28;20565;-71
2022/03/30 04:49:01;;;;;;;96.73;35.67;;;6.20;99.90;;;;;;5076260;28;20517;-71
2022/03/30 04:51:29;;;;;;;99.57;36.30;;;6.30;99.90;;;;;;5073436;28;20972;-71
2022/03/30 04:53:56;;;;;;;86.37;34.97;;;6.20;99.90;;;;;;5081014;28;20945;-71
2022/03/30 04:56:23;;;;;;;96.53;37.70;;;6.30;99.90;;;;;;5079662;28;20573;-71
2022/03/30 04:58:50;;;;;;;83.10;35.60;;;6.30;99.90;;;;;;5072377;28;20489;-71
2022/03/30 05:01:17;;;;;;;92.23;36.23;;;6.30;99.90;;;;;;5072369;28;20863;-71
2022/03/30 05:03:45;;;;;;;83.60;35.97;;;6.30;99.90;;;;;;5080878;28;20592;-73
2022/03/30 05:06:13;;;;;;;103.20;37.07;;;6.30;99.90;;;;;;5077155;28;20444;-73
2022/03/30 05:08:39;;;;;;;86.73;35.30;;;6.30;99.90;;;;;;5086070;28;21224;-73
2022/03/30 05:11:06;;;;;;;91.20;36.07;;;6.20;99.90;;;;;;5083793;28;20460;-71
2022/03/30 05:13:32;;;;;;;77.57;34.53;;;6.30;99.90;;;;;;5085106;28;21043;-71
2022/03/30 05:15:59;;;;;;;81.30;35.20;;;6.20;99.90;;;;;;5075278;28;20455;-72
2022/03/30 05:18:26;;;;;;;84.50;35.03;;;6.20;99.90;;;;;;5073962;28;20479;-72
2022/03/30 05:20:54;;;;;;;91.80;35.50;;;6.20;99.90;;;;;;5084326;28;20484;-72
2022/03/30 05:23:21;;;;;;;83.13;37.63;;;6.20;99.90;;;;;;5075147;28;20455;-72
2022/03/30 05:25:47;;;;;;;84.13;35.53;;;6.20;99.90;;;;;;5078819;28;20500;-72
2022/03/30 05:28:14;;;;;;;86.90;36.10;;;6.20;99.90;;;;;;5074276;28;20470;-72
2022/03/30 05:30:41;;;;;;;83.17;33.90;;;6.20;99.90;;;;;;5080408;28;20496;-71
2022/03/30 05:33:08;;;;;;;85.77;36.77;;;6.20;99.90;;;;;;5083964;28;20524;-71
2022/03/30 05:35:35;;;;;;;79.40;33.87;;;6.20;99.90;;;;;;5080385;28;20451;-72
2022/03/30 05:38:03;;;;;;;93.87;35.60;;;6.20;99.90;;;;;;5078309;28;20537;-71
2022/03/30 05:40:30;;;;;;;77.40;34.27;;;6.20;99.90;;;;;;5079187;28;20523;-71
2022/03/30 05:42:57;;;;;;;79.30;36.00;;;6.20;99.90;;;;;;5081384;28;20456;-71
2022/03/30 05:45:24;;;;;;;88.77;34.47;;;6.20;99.90;;;;;;5078770;28;20459;-72
2022/03/30 05:47:50;;;;;;;91.63;35.83;;;6.20;99.90;;;;;;5073375;28;20478;-72
2022/03/30 05:50:18;;;;;;;82.50;35.67;;;6.20;99.90;;;;;;5083488;28;20504;-71
2022/03/30 05:52:44;;;;;;;85.70;35.00;;;6.30;99.90;;;;;;5074766;28;20804;-72
2022/03/30 05:55:12;;;;;;;82.30;35.57;;;6.30;99.90;;;;;;5077359;28;20460;-72
2022/03/30 05:57:39;;;;;;;93.83;36.30;;;6.30;99.90;;;;;;5070196;28;20471;-71
2022/03/30 06:00:08;;;;;;;74.00;33.80;;;6.30;99.90;;;;;;5077407;28;20503;-72
2022/03/30 06:02:35;;;;;;;87.50;36.50;;;6.30;99.90;;;;;;5089267;28;20804;-72
2022/03/30 06:05:01;;;;;;;81.20;34.40;;;6.40;99.90;;;;;;5087086;28;20477;-72
2022/03/30 06:07:28;;;;;;;73.23;33.63;;;6.40;99.90;;;;;;5086691;28;20623;-72
2022/03/30 06:09:55;;;;;;;90.70;34.93;;;6.50;99.90;;;;;;5086741;28;20454;-72
2022/03/30 06:12:24;;;;;;;82.00;35.80;;;6.50;99.90;;;;;;5080376;28;20454;-72
2022/03/30 06:14:52;;;;;;;86.93;35.40;;;6.50;99.90;;;;;;5078568;28;20487;-72
2022/03/30 06:17:19;;;;;;;75.67;34.07;;;6.50;99.90;;;;;;5081053;28;20847;-72
2022/03/30 06:19:48;;;;;;;84.00;36.50;;;6.50;99.90;;;;;;5084141;28;20654;-72
2022/03/30 06:22:15;;;;;;;79.60;33.87;;;6.50;99.90;;;;;;5091242;28;20443;-72
2022/03/30 06:24:42;;;;;;;80.43;34.70;;;6.50;99.90;;;;;;5079789;28;20452;-72
2022/03/30 06:27:10;;;;;;;78.57;34.90;;;6.50;99.90;;;;;;5080814;28;20537;-72
2022/03/30 06:29:40;;;;;;;78.93;36.33;;;6.50;99.90;;;;;;5088672;28;20505;-72
2022/03/30 06:32:08;;;;;;;77.10;34.40;;;6.50;99.90;;;;;;5072964;28;20967;-72
2022/03/30 06:34:36;;;;;;;80.53;34.60;;;6.50;99.90;;;;;;5072469;28;20814;-72
2022/03/30 06:37:05;;;;;;;86.23;36.17;;;6.50;99.90;;;;;;5080460;28;20463;-72
2022/03/30 06:39:32;;;;;;;80.20;34.33;;;6.50;99.90;;;;;;5081957;28;20856;-72
2022/03/30 06:41:59;;;;;;;76.50;34.77;;;6.50;99.90;;;;;;5072981;28;20451;-73
2022/03/30 06:44:25;;;;;;;73.23;34.00;;;6.60;99.90;;;;;;5072087;28;21003;-72
2022/03/30 06:46:54;;;;;;;81.27;35.80;;;6.60;99.90;;;;;;5077442;28;20463;-72
2022/03/30 06:49:20;;;;;;;80.60;34.70;;;6.60;99.90;;;;;;5081628;28;20449;-72
2022/03/30 06:51:47;;;;;;;82.27;34.20;;;6.60;99.90;;;;;;5083902;28;20872;-72
2022/03/30 06:54:14;;;;;;;75.53;33.90;;;6.70;99.90;;;;;;5085949;28;20482;-72
2022/03/30 06:56:42;;;;;;;85.97;34.77;;;6.80;99.90;;;;;;5075588;28;20450;-72
2022/03/30 06:59:11;;;;;;;81.40;36.47;;;6.90;99.90;;;;;;5074487;28;20864;-72
2022/03/30 07:01:38;;;;;;;72.17;33.97;;;6.90;99.90;;;;;;5090598;28;20497;-71
2022/03/30 07:04:06;;;;;;;67.70;33.43;;;7.00;99.90;;;;;;5083367;28;20463;-72
2022/03/30 07:06:32;;;;;;;74.23;34.67;;;7.00;99.90;;;;;;5083196;28;20462;-72
2022/03/30 07:11:43;;;;;;;73.00;32.20;;;7.00;99.90;;;;;;5080927;28;20445;-71
2022/03/30 07:14:10;;;;;;;72.70;32.27;;;6.90;99.90;;;;;;5085376;28;20454;-72
2022/03/30 07:16:37;;;;;;;70.43;35.00;;;6.90;99.90;;;;;;5083319;28;20459;-72
2022/03/30 07:19:03;;;;;;;72.07;32.97;;;6.90;99.90;;;;;;5080623;28;20556;-74
2022/03/30 07:21:31;;;;;;;75.83;32.77;;;6.90;99.90;;;;;;5084766;28;20545;-73
2022/03/30 07:23:58;;;;;;;76.30;33.10;;;6.90;99.90;;;;;;5079415;28;20512;-72
2022/03/30 07:26:25;;;;;;;75.77;32.60;;;6.90;99.90;;;;;;5077595;28;20938;-72
2022/03/30 07:28:52;;;;;;;72.43;33.63;;;6.90;99.90;;;;;;5088402;28;20877;-74
2022/03/30 07:31:18;;;;;;;70.30;32.60;;;6.80;99.90;;;;;;5089786;28;20524;-71
2022/03/30 07:33:45;;;;;;;75.90;33.50;;;6.90;99.90;;;;;;5081167;28;20505;-71
2022/03/30 07:36:12;;;;;;;81.20;34.57;;;6.90;99.90;;;;;;5074981;28;20564;-71
2022/03/30 07:38:40;;;;;;;79.63;34.17;;;7.00;99.90;;;;;;5077867;28;20974;-71
2022/03/30 07:41:07;;;;;;;80.87;34.30;;;7.00;99.90;;;;;;5073467;28;20451;-71
2022/03/30 07:43:33;;;;;;;70.50;34.37;;;7.00;99.90;;;;;;5080376;28;20512;-71
2022/03/30 07:46:00;;;;;;;72.83;33.80;;;7.10;99.90;;;;;;5085186;28;20512;-71
2022/03/30 07:48:26;;;;;;;76.27;33.90;;;7.10;99.90;;;;;;5083746;28;20468;-71
2022/03/30 07:50:53;;;;;;;74.77;34.20;;;7.20;99.90;;;;;;5070249;28;21024;-71
2022/03/30 07:53:20;;;;;;;79.27;32.17;;;7.20;99.90;;;;;;5087829;28;20451;-71
2022/03/30 07:55:48;;;;;;;76.20;32.90;;;7.30;99.90;;;;;;5075901;28;20504;-70
2022/03/30 07:58:15;;;;;;;75.40;34.10;;;7.30;99.90;;;;;;5087206;28;20470;-70
2022/03/30 08:00:42;;;;;;;75.47;34.27;;;7.20;99.90;;;;;;5084188;28;20461;-70
2022/03/30 08:03:09;;;;;;;73.30;33.20;;;7.30;99.90;;;;;;5082043;28;21444;-72
2022/03/30 08:05:36;;;;;;;69.10;32.27;;;7.20;99.90;;;;;;5078604;28;20969;-71
2022/03/30 08:08:03;;;;;;;73.10;33.13;;;7.30;99.90;;;;;;5083433;28;20475;-72
2022/03/30 08:10:30;;;;;;;75.00;32.70;;;7.30;99.90;;;;;;5080310;28;20455;-73
2022/03/30 08:12:58;;;;;;;77.27;34.80;;;7.30;99.90;;;;;;5083797;28;20509;-74
2022/03/30 08:15:26;;;;;;;85.03;36.53;;;7.30;99.90;;;;;;5082685;28;20984;-73
2022/03/30 08:17:54;;;;;;;77.30;33.83;;;7.30;99.90;;;;;;5077497;28;21019;-73
2022/03/30 08:23:07;;;;;;;70.80;31.47;;;7.30;99.90;;;;;;5079906;28;20443;-73
2022/03/30 08:25:35;;;;;;;70.87;33.27;;;7.30;99.90;;;;;;5078066;28;20517;-73
2022/03/30 08:28:04;;;;;;;77.50;32.87;;;7.30;99.90;;;;;;5082767;28;20471;-74
2022/03/30 08:30:31;;;;;;;70.80;32.47;;;7.30;99.90;;;;;;5073072;28;20439;-73
2022/03/30 08:32:58;;;;;;;86.63;35.30;;;7.40;99.90;;;;;;5072583;28;20495;-73
2022/03/30 08:35:25;;;;;;;86.40;33.50;;;7.40;99.90;;;;;;5080332;28;20457;-73
2022/03/30 08:37:52;;;;;;;74.90;32.77;;;7.50;99.90;;;;;;5078773;28;20579;-73
2022/03/30 08:40:19;;;;;;;75.17;32.83;;;7.60;99.90;;;;;;5083443;28;20512;-73
2022/03/30 08:42:45;;;;;;;69.20;32.23;;;7.60;99.90;;;;;;5072956;28;20463;-73
2022/03/30 08:45:13;;;;;;;67.10;31.77;;;7.70;99.90;;;;;;5082592;28;20975;-73
2022/03/30 08:47:40;;;;;;;66.93;31.23;;;7.70;99.90;;;;;;5083870;28;21059;-73
2022/03/30 08:50:08;;;;;;;72.47;30.60;;;7.80;99.90;;;;;;5078022;28;20451;-73
2022/03/30 08:52:35;;;;;;;71.73;32.80;;;7.90;99.90;;;;;;5075100;28;20463;-73
2022/03/30 08:55:02;;;;;;;76.77;32.33;;;7.90;99.90;;;;;;5076365;28;20446;-73
2022/03/30 08:57:29;;;;;;;61.13;30.20;;;8.00;99.90;;;;;;5075666;28;20494;-72
2022/03/30 09:00:05;;;;;;;62.70;29.90;;;8.00;99.90;;;;;;5077889;28;21117;-73
2022/03/30 09:02:41;;;;;;;66.83;31.17;;;8.10;99.90;;;;;;5079413;28;20580;-73
2022/03/30 09:05:13;;;;;;;62.90;29.47;;;8.10;99.90;;;;;;5079005;28;21188;-75
2022/03/30 09:07:40;;;;;;;65.57;29.97;;;8.20;99.90;;;;;;5080075;28;20499;-72
2022/03/30 09:10:14;;;;;;;61.07;28.73;;;8.30;99.90;;;;;;5081977;28;20557;-72
2022/03/30 09:12:41;;;;;;;65.00;30.57;;;8.30;99.90;;;;;;5078826;28;20809;-72
2022/03/30 09:15:09;;;;;;;60.13;26.97;;;8.40;99.90;;;;;;5075001;28;20509;-72
2022/03/30 09:17:41;;;;;;;54.07;27.00;;;8.50;99.90;;;;;;5077655;28;20462;-72
2022/03/30 09:20:14;;;;;;;56.20;27.93;;;8.50;99.90;;;;;;5071743;28;20614;-72
2022/03/30 09:22:46;;;;;;;57.30;25.40;;;8.50;99.90;;;;;;5080711;28;20446;-72
2022/03/30 09:25:13;;;;;;;58.63;27.00;;;8.50;99.90;;;;;;5071996;28;20509;-73
2022/03/30 09:27:42;;;;;;;57.53;27.90;;;8.50;99.90;;;;;;5082501;28;21005;-72
2022/03/30 09:30:11;;;;;;;50.13;26.93;;;8.60;99.90;;;;;;5075743;28;20955;-72
2022/03/30 09:32:41;;;;;;;49.90;25.97;;;8.60;99.90;;;;;;5081598;28;20462;-72
2022/03/30 09:35:24;;;;;;;53.53;26.20;;;8.80;99.90;;;;;;5087730;28;20447;-72
2022/03/30 09:38:06;;;;;;;51.27;24.47;;;8.90;99.90;;;;;;5081275;28;20479;-72
2022/03/30 09:40:34;;;;;;;48.87;24.07;;;9.10;99.90;;;;;;5084618;28;20565;-72
2022/03/30 09:43:16;;;;;;;48.97;23.83;;;9.40;99.90;;;;;;5080368;28;20466;-72
2022/03/30 09:45:43;;;;;;;47.33;24.87;;;9.80;99.90;;;;;;5089838;28;21050;-72
2022/03/30 09:48:16;;;;;;;43.83;22.67;;;10.10;99.90;;;;;;5088730;28;20478;-72
2022/03/30 09:50:45;;;;;;;45.33;22.50;;;10.50;99.90;;;;;;5073355;28;20537;-73
2022/03/30 09:53:13;;;;;;;43.33;22.50;;;10.80;99.90;;;;;;5082185;28;20447;-72
2022/03/30 09:55:56;;;;;;;36.03;20.00;;;10.70;99.90;;;;;;5083565;28;20458;-72
2022/03/30 09:58:25;;;;;;;39.87;21.23;;;10.70;99.90;;;;;;5085438;28;20471;-72
2022/03/30 10:01:06;;;;;;;37.63;20.40;;;10.40;99.90;;;;;;5081633;28;20479;-72
2022/03/30 10:03:46;;;;;;;42.20;22.67;;;10.30;99.90;;;;;;5078976;28;20473;-72
2022/03/30 10:06:14;;;;;;;36.93;19.80;;;10.30;99.90;;;;;;5075454;28;21025;-72
2022/03/30 10:08:42;;;;;;;36.17;19.33;;;10.30;99.90;;;;;;5082245;28;20462;-72
2022/03/30 10:11:10;;;;;;;41.23;18.97;;;10.30;99.90;;;;;;5090030;28;20446;-73
2022/03/30 10:13:37;;;;;;;34.87;19.57;;;10.30;99.90;;;;;;5081765;28;20920;-72
2022/03/30 10:16:06;;;;;;;36.33;20.10;;;10.40;99.90;;;;;;5084438;28;20460;-72
2022/03/30 10:18:33;;;;;;;35.63;21.10;;;10.30;99.90;;;;;;5083156;28;20521;-72
2022/03/30 10:21:11;;;;;;;36.80;18.10;;;10.20;99.90;;;;;;5084208;28;20501;-72
2022/03/30 10:23:48;;;;;;;40.30;20.23;;;10.20;99.90;;;;;;5074789;28;20446;-72
2022/03/30 10:26:26;;;;;;;38.60;19.97;;;10.20;99.90;;;;;;5085089;28;20515;-72
2022/03/30 10:28:59;;;;;;;38.10;19.70;;;10.10;99.90;;;;;;5078380;28;20479;-72
2022/03/30 10:31:26;;;;;;;35.77;19.57;;;10.10;99.90;;;;;;5086540;28;20537;-72
2022/03/30 10:33:54;;;;;;;39.03;19.73;;;10.20;99.90;;;;;;5077799;28;20443;-72
2022/03/30 10:36:24;;;;;;;35.73;20.53;;;10.30;99.90;;;;;;5085496;28;20486;-72
2022/03/30 10:39:07;;;;;;;35.67;20.83;;;10.30;99.90;;;;;;5076775;28;20797;-72
2022/03/30 10:41:49;;;;;;;37.27;20.47;;;10.20;99.90;;;;;;5078471;28;20451;-72
2022/03/30 10:44:34;;;;;;;39.57;21.47;;;10.10;99.90;;;;;;5074330;28;21038;-72
2022/03/30 10:47:09;;;;;;;37.87;20.17;;;10.20;99.90;;;;;;5079841;28;20450;-72
2022/03/30 10:49:46;;;;;;;42.90;20.87;;;10.30;99.90;;;;;;5078514;28;20879;-72
2022/03/30 10:52:38;;;;;;;38.20;19.70;;;10.40;99.90;;;;;;5073701;28;20463;-72
2022/03/30 10:55:31;;;;;;;43.77;19.63;;;10.60;99.90;;;;;;5077951;28;21146;-72
2022/03/30 10:58:01;;;;;;;37.87;20.83;;;10.80;99.90;;;;;;5077972;28;20608;-72
2022/03/30 11:00:31;;;;;;;38.23;19.70;;;11.00;99.90;;;;;;5079041;28;20478;-71
2022/03/30 11:03:09;;;;;;;35.50;19.27;;;11.00;99.90;;;;;;5082353;28;20952;-71
2022/03/30 11:05:36;;;;;;;38.83;19.70;;;11.10;99.90;;;;;;5079560;28;20447;-72
2022/03/30 11:08:05;;;;;;;34.03;19.73;;;10.90;99.90;;;;;;5076842;28;20990;-72
2022/03/30 11:10:45;;;;;;;34.97;18.07;;;10.80;99.90;;;;;;5079251;28;20439;-72
2022/03/30 11:13:12;;;;;;;36.03;18.93;;;11.10;99.90;;;;;;5079608;28;20455;-72
2022/03/30 11:16:13;;;;;;;36.20;20.57;;;11.40;99.90;;;;;;5080811;28;20475;-70
2022/03/30 11:19:00;;;;;;;38.40;20.40;;;11.70;99.90;;;;;;5080187;28;20467;-71
2022/03/30 11:21:27;;;;;;;37.63;19.03;;;12.00;99.90;;;;;;5081092;28;20483;-70
2022/03/30 11:24:11;;;;;;;38.97;21.27;;;12.00;99.90;;;;;;5073066;28;20451;-70
2022/03/30 11:27:18;;;;;;;36.97;19.57;;;11.70;99.90;;;;;;5086649;28;20475;-70
2022/03/30 11:29:53;;;;;;;33.90;19.90;;;11.70;99.90;;;;;;5081113;28;20500;-70
2022/03/30 11:33:00;;;;;;;41.20;19.07;;;11.80;99.90;;;;;;5073109;28;20443;-71
2022/03/30 11:35:29;;;;;;;31.73;17.40;;;11.60;99.90;;;;;;5069831;28;20543;-72
2022/03/30 11:38:25;;;;;;;33.23;19.70;;;11.70;99.90;;;;;;5074843;28;21152;-72
2022/03/30 11:41:06;;;;;;;34.50;17.87;;;11.50;99.90;;;;;;5070036;28;20897;-71
2022/03/30 11:45:12;;;;;;;30.73;17.70;;;11.50;99.90;;;;;;5074848;28;20501;-72
2022/03/30 11:46:24;;;;;;;36.23;18.87;;;11.40;99.90;;;;;;5075895;28;20978;-72
2022/03/30 11:48:51;;;;;;;33.70;19.13;;;11.50;99.90;;;;;;5080486;28;20536;-71
2022/03/30 11:51:18;;;;;;;39.10;20.07;;;11.80;99.90;;;;;;5081318;28;20496;-71
2022/03/30 11:53:46;;;;;;;43.13;21.10;;;12.10;99.90;;;;;;5077676;28;21060;-71
2022/03/30 11:56:14;;;;;;;31.40;19.00;;;12.30;99.90;;;;;;5078765;28;20452;-72
2022/03/30 11:58:43;;;;;;;45.90;21.37;;;12.40;99.90;;;;;;5076360;28;20474;-72
2022/03/30 12:01:12;;;;;;;35.10;19.60;;;12.50;99.90;;;;;;5075640;28;20562;-72
2022/03/30 12:03:40;;;;;;;33.83;20.37;;;12.50;99.90;;;;;;5078901;28;20478;-72
2022/03/30 12:06:08;;;;;;;35.03;19.17;;;12.70;99.90;;;;;;5076777;28;20455;-71
2022/03/30 12:08:41;;;;;;;31.97;19.07;;;12.80;99.90;;;;;;5079748;28;20475;-72
2022/03/30 12:11:08;;;;;;;39.33;19.97;;;12.90;99.90;;;;;;5076865;28;20450;-72
2022/03/30 12:13:36;;;;;;;40.40;18.53;;;13.00;99.90;;;;;;5077172;28;20454;-72
2022/03/30 12:16:09;;;;;;;33.40;18.03;;;13.10;99.90;;;;;;5072315;28;20787;-71
2022/03/30 12:18:43;;;;;;;31.10;18.37;;;13.30;99.90;;;;;;5076606;28;21013;-72
2022/03/30 12:21:13;;;;;;;29.60;16.70;;;13.70;99.90;;;;;;5077945;28;20577;-74
2022/03/30 12:23:50;;;;;;;29.90;17.50;;;14.10;99.90;;;;;;5078626;28;20494;-74
2022/03/30 12:26:17;;;;;;;28.97;17.43;;;14.60;99.90;;;;;;5081030;28;20504;-74
2022/03/30 12:28:45;;;;;;;33.70;16.80;;;14.70;99.90;;;;;;5081518;28;20470;-73
2022/03/30 12:31:14;;;;;;;27.23;16.80;;;14.90;99.90;;;;;;5080884;28;21076;-72
2022/03/30 12:33:45;;;;;;;29.80;16.77;;;15.20;99.90;;;;;;5082497;28;20497;-72
2022/03/30 12:36:17;;;;;;;26.77;16.37;;;15.40;99.90;;;;;;5078937;28;20463;-73
2022/03/30 12:38:43;;;;;;;35.17;17.37;;;15.00;99.90;;;;;;5070102;28;20528;-72
2022/03/30 12:41:11;;;;;;;29.83;17.47;;;14.50;99.90;;;;;;5079928;28;20479;-72
2022/03/30 12:43:39;;;;;;;30.37;16.97;;;14.10;99.90;;;;;;5078345;28;20457;-71
2022/03/30 12:46:17;;;;;;;30.60;17.53;;;14.00;99.90;;;;;;5081004;28;20463;-72
2022/03/30 12:48:45;;;;;;;31.80;16.90;;;14.40;99.90;;;;;;5078999;28;20474;-72
2022/03/30 12:51:18;;;;;;;30.70;17.83;;;14.80;99.90;;;;;;5075830;28;20448;-73
2022/03/30 12:53:48;;;;;;;30.73;17.67;;;15.30;99.90;;;;;;5072965;28;20990;-72